sensor_id;sensor_type;location;lat;lon;timestamp;temperature;humidity
18807;DHT22;9531;52.030;4.380;2023-04-01T00:01:54;9.90;99.90
18807;DHT22;9531;52.030;4.380;2023-04-01T00:04:21;9.90;99.90
18807;DHT22;9531;52.030;4.380;2023-04-01T00:06:48;9.90;99.90
18807;DHT22;9531;52.030;4.380;2023-04-01T00:09:15;9.90;99.90
18807;DHT22;9531;52.030;4.380;2023-04-01T00:11:43;9.90;99.90
18807;DHT22;9531;52.030;4.380;2023-04-01T00:14:11;9.90;99.90
18807;DHT22;9531;52.030;4.380;2023-04-01T00:16:38;9.80;99.90
18807;DHT22;9531;52.030;4.380;2023-04-01T00:19:05;9.90;99.90
18807;DHT22;9531;52.030;4.380;2023-04-01T00:21:32;9.90;99.90
18807;DHT22;9531;52.030;4.380;2023-04-01T00:23:59;9.80;99.90
18807;DHT22;9531;52.030;4.380;2023-04-01T00:26:26;9.80;99.90
18807;DHT22;9531;52.030;4.380;2023-04-01T00:28:54;9.80;99.90
18807;DHT22;9531;52.030;4.380;2023-04-01T00:31:21;9.80;99.90
18807;DHT22;9531;52.030;4.380;2023-04-01T00:33:48;9.80;99.90
18807;DHT22;9531;52.030;4.380;2023-04-01T00:36:18;9.80;99.90
18807;DHT22;9531;52.030;4.380;2023-04-01T00:38:47;9.80;99.90
18807;DHT22;9531;52.030;4.380;2023-04-01T00:41:15;9.80;99.90
18807;DHT22;9531;52.030;4.380;2023-04-01T00:43:45;9.80;99.90
18807;DHT22;9531;52.030;4.380;2023-04-01T00:46:14;9.80;99.90
18807;DHT22;9531;52.030;4.380;2023-04-01T00:48:43;9.80;99.90
18807;DHT22;9531;52.030;4.380;2023-04-01T00:51:14;9.80;99.90
18807;DHT22;9531;52.030;4.380;2023-04-01T00:53:47;9.70;99.90
18807;DHT22;9531;52.030;4.380;2023-04-01T00:56:17;9.70;99.90
18807;DHT22;9531;52.030;4.380;2023-04-01T00:58:49;9.70;99.90
18807;DHT22;9531;52.030;4.380;2023-04-01T01:01:19;9.70;99.90
18807;DHT22;9531;52.030;4.380;2023-04-01T01:03:46;9.70;99.90
18807;DHT22;9531;52.030;4.380;2023-04-01T01:06:25;9.70;99.90
18807;DHT22;9531;52.030;4.380;2023-04-01T01:09:10;9.70;99.90
18807;DHT22;9531;52.030;4.380;2023-04-01T01:11:42;9.70;99.90
18807;DHT22;9531;52.030;4.380;2023-04-01T01:14:19;9.70;99.90
18807;DHT22;9531;52.030;4.380;2023-04-01T01:16:56;9.70;99.90
18807;DHT22;9531;52.030;4.380;2023-04-01T01:19:51;9.70;99.90
18807;DHT22;9531;52.030;4.380;2023-04-01T01:22:33;9.70;99.90
18807;DHT22;9531;52.030;4.380;2023-04-01T01:25:14;9.70;99.90
18807;DHT22;9531;52.030;4.380;2023-04-01T01:27:48;9.70;99.90
18807;DHT22;9531;52.030;4.380;2023-04-01T01:30:29;9.60;99.90
18807;DHT22;9531;52.030;4.380;2023-04-01T01:33:13;9.60;99.90
18807;DHT22;9531;52.030;4.380;2023-04-01T01:35:46;9.70;99.90
18807;DHT22;9531;52.030;4.380;2023-04-01T01:38:16;9.70;99.90
18807;DHT22;9531;52.030;4.380;2023-04-01T01:40:47;9.60;99.90
18807;DHT22;9531;52.030;4.380;2023-04-01T01:43:21;9.60;99.90
18807;DHT22;9531;52.030;4.380;2023-04-01T01:45:52;9.60;99.90
18807;DHT22;9531;52.030;4.380;2023-04-01T01:48:20;9.60;99.90
18807;DHT22;9531;52.030;4.380;2023-04-01T01:50:49;9.60;99.90
18807;DHT22;9531;52.030;4.380;2023-04-01T01:53:16;9.60;99.90
18807;DHT22;9531;52.030;4.380;2023-04-01T01:55:44;9.60;99.90
18807;DHT22;9531;52.030;4.380;2023-04-01T01:58:14;9.60;99.90
18807;DHT22;9531;52.030;4.380;2023-04-01T02:00:46;9.60;99.90
18807;DHT22;9531;52.030;4.380;2023-04-01T02:03:15;9.60;99.90
18807;DHT22;9531;52.030;4.380;2023-04-01T02:05:44;9.60;99.90
18807;DHT22;9531;52.030;4.380;2023-04-01T02:08:16;9.60;99.90
18807;DHT22;9531;52.030;4.380;2023-04-01T02:10:50;9.60;99.90
18807;DHT22;9531;52.030;4.380;2023-04-01T02:13:23;9.60;99.90
18807;DHT22;9531;52.030;4.380;2023-04-01T02:15:53;9.60;99.90
18807;DHT22;9531;52.030;4.380;2023-04-01T02:18:22;9.60;99.90
18807;DHT22;9531;52.030;4.380;2023-04-01T02:20:50;9.60;99.90
18807;DHT22;9531;52.030;4.380;2023-04-01T02:23:19;9.60;99.90
18807;DHT22;9531;52.030;4.380;2023-04-01T02:25:47;9.60;99.90
18807;DHT22;9531;52.030;4.380;2023-04-01T02:28:14;9.60;99.90
18807;DHT22;9531;52.030;4.380;2023-04-01T02:30:45;9.60;99.90
18807;DHT22;9531;52.030;4.380;2023-04-01T02:33:14;9.60;99.90
18807;DHT22;9531;52.030;4.380;2023-04-01T02:35:42;9.60;99.90
18807;DHT22;9531;52.030;4.380;2023-04-01T02:38:09;9.60;99.90
18807;DHT22;9531;52.030;4.380;2023-04-01T02:40:49;9.60;99.90
18807;DHT22;9531;52.030;4.380;2023-04-01T02:43:16;9.60;99.90
18807;DHT22;9531;52.030;4.380;2023-04-01T02:45:44;9.60;99.90
18807;DHT22;9531;52.030;4.380;2023-04-01T02:48:11;9.60;99.90
18807;DHT22;9531;52.030;4.380;2023-04-01T02:50:39;9.60;99.90
18807;DHT22;9531;52.030;4.380;2023-04-01T02:53:06;9.60;99.90
18807;DHT22;9531;52.030;4.380;2023-04-01T02:55:33;9.60;99.90
18807;DHT22;9531;52.030;4.380;2023-04-01T02:58:01;9.60;99.90
18807;DHT22;9531;52.030;4.380;2023-04-01T03:00:29;9.60;99.90
18807;DHT22;9531;52.030;4.380;2023-04-01T03:02:56;9.50;99.90
18807;DHT22;9531;52.030;4.380;2023-04-01T03:05:23;9.60;99.90
18807;DHT22;9531;52.030;4.380;2023-04-01T03:07:50;9.60;99.90
18807;DHT22;9531;52.030;4.380;2023-04-01T03:10:17;9.60;99.90
18807;DHT22;9531;52.030;4.380;2023-04-01T03:12:44;9.60;99.90
18807;DHT22;9531;52.030;4.380;2023-04-01T03:15:13;9.60;99.90
18807;DHT22;9531;52.030;4.380;2023-04-01T03:17:41;9.60;99.90
18807;DHT22;9531;52.030;4.380;2023-04-01T03:20:09;9.60;99.90
18807;DHT22;9531;52.030;4.380;2023-04-01T03:22:37;9.60;99.90
18807;DHT22;9531;52.030;4.380;2023-04-01T03:25:05;9.60;99.90
18807;DHT22;9531;52.030;4.380;2023-04-01T03:27:33;9.60;99.90
18807;DHT22;9531;52.030;4.380;2023-04-01T03:30:00;9.60;99.90
18807;DHT22;9531;52.030;4.380;2023-04-01T03:32:28;9.60;99.90
18807;DHT22;9531;52.030;4.380;2023-04-01T03:34:55;9.60;99.90
18807;DHT22;9531;52.030;4.380;2023-04-01T03:37:23;9.60;99.90
18807;DHT22;9531;52.030;4.380;2023-04-01T03:39:50;9.60;99.90
18807;DHT22;9531;52.030;4.380;2023-04-01T03:42:17;9.60;99.90
18807;DHT22;9531;52.030;4.380;2023-04-01T03:44:44;9.60;99.90
18807;DHT22;9531;52.030;4.380;2023-04-01T03:47:11;9.60;99.90
18807;DHT22;9531;52.030;4.380;2023-04-01T03:49:39;9.60;99.90
18807;DHT22;9531;52.030;4.380;2023-04-01T03:52:09;9.60;99.90
18807;DHT22;9531;52.030;4.380;2023-04-01T03:54:36;9.60;99.90
18807;DHT22;9531;52.030;4.380;2023-04-01T03:57:03;9.60;99.90
18807;DHT22;9531;52.030;4.380;2023-04-01T03:59:30;9.60;99.90
18807;DHT22;9531;52.030;4.380;2023-04-01T04:01:57;9.60;99.90
18807;DHT22;9531;52.030;4.380;2023-04-01T04:04:24;9.60;99.90
18807;DHT22;9531;52.030;4.380;2023-04-01T04:06:53;9.60;99.90
18807;DHT22;9531;52.030;4.380;2023-04-01T04:09:20;9.60;99.90
18807;DHT22;9531;52.030;4.380;2023-04-01T04:11:48;9.60;99.90
18807;DHT22;9531;52.030;4.380;2023-04-01T04:14:15;9.60;99.90
18807;DHT22;9531;52.030;4.380;2023-04-01T04:16:42;9.60;99.90
18807;DHT22;9531;52.030;4.380;2023-04-01T04:19:09;9.60;99.90
18807;DHT22;9531;52.030;4.380;2023-04-01T04:21:36;9.60;99.90
18807;DHT22;9531;52.030;4.380;2023-04-01T04:24:05;9.60;99.90
18807;DHT22;9531;52.030;4.380;2023-04-01T04:26:33;9.70;99.90
18807;DHT22;9531;52.030;4.380;2023-04-01T04:29:00;9.60;99.90
18807;DHT22;9531;52.030;4.380;2023-04-01T04:31:27;9.60;99.90
18807;DHT22;9531;52.030;4.380;2023-04-01T04:33:54;9.60;99.90
18807;DHT22;9531;52.030;4.380;2023-04-01T04:36:21;9.60;99.90
18807;DHT22;9531;52.030;4.380;2023-04-01T04:38:48;9.60;99.90
18807;DHT22;9531;52.030;4.380;2023-04-01T04:41:18;9.60;99.90
18807;DHT22;9531;52.030;4.380;2023-04-01T04:43:50;9.60;99.90
18807;DHT22;9531;52.030;4.380;2023-04-01T04:46:18;9.60;99.90
18807;DHT22;9531;52.030;4.380;2023-04-01T04:48:46;9.60;99.90
18807;DHT22;9531;52.030;4.380;2023-04-01T04:51:14;9.60;99.90
18807;DHT22;9531;52.030;4.380;2023-04-01T04:53:42;9.60;99.90
18807;DHT22;9531;52.030;4.380;2023-04-01T04:56:09;9.60;99.90
18807;DHT22;9531;52.030;4.380;2023-04-01T04:58:38;9.60;99.90
18807;DHT22;9531;52.030;4.380;2023-04-01T05:01:07;9.60;99.90
18807;DHT22;9531;52.030;4.380;2023-04-01T05:03:34;9.60;99.90
18807;DHT22;9531;52.030;4.380;2023-04-01T05:06:01;9.60;99.90
18807;DHT22;9531;52.030;4.380;2023-04-01T05:08:28;9.60;99.90
18807;DHT22;9531;52.030;4.380;2023-04-01T05:10:55;9.60;99.90
18807;DHT22;9531;52.030;4.380;2023-04-01T05:13:22;9.60;99.90
18807;DHT22;9531;52.030;4.380;2023-04-01T05:15:50;9.60;99.90
18807;DHT22;9531;52.030;4.380;2023-04-01T05:18:17;9.60;99.90
18807;DHT22;9531;52.030;4.380;2023-04-01T05:20:48;9.60;99.90
18807;DHT22;9531;52.030;4.380;2023-04-01T05:23:15;9.60;99.90
18807;DHT22;9531;52.030;4.380;2023-04-01T05:25:42;9.60;99.90
18807;DHT22;9531;52.030;4.380;2023-04-01T05:28:10;9.60;99.90
18807;DHT22;9531;52.030;4.380;2023-04-01T05:30:40;9.60;99.90
18807;DHT22;9531;52.030;4.380;2023-04-01T05:33:08;9.60;99.90
18807;DHT22;9531;52.030;4.380;2023-04-01T05:35:35;9.50;99.90
18807;DHT22;9531;52.030;4.380;2023-04-01T05:38:02;9.60;99.90
18807;DHT22;9531;52.030;4.380;2023-04-01T05:40:30;9.60;99.90
18807;DHT22;9531;52.030;4.380;2023-04-01T05:42:58;9.60;99.90
18807;DHT22;9531;52.030;4.380;2023-04-01T05:45:25;9.60;99.90
18807;DHT22;9531;52.030;4.380;2023-04-01T05:47:52;9.60;99.90
18807;DHT22;9531;52.030;4.380;2023-04-01T05:50:20;9.60;99.90
18807;DHT22;9531;52.030;4.380;2023-04-01T05:52:47;9.50;99.90
18807;DHT22;9531;52.030;4.380;2023-04-01T05:55:15;9.60;99.90
18807;DHT22;9531;52.030;4.380;2023-04-01T05:57:44;9.60;99.90
18807;DHT22;9531;52.030;4.380;2023-04-01T06:00:12;9.60;99.90
18807;DHT22;9531;52.030;4.380;2023-04-01T06:02:39;9.60;99.90
18807;DHT22;9531;52.030;4.380;2023-04-01T06:05:13;9.60;99.90
18807;DHT22;9531;52.030;4.380;2023-04-01T06:07:44;9.60;99.90
18807;DHT22;9531;52.030;4.380;2023-04-01T06:10:16;9.60;99.90
18807;DHT22;9531;52.030;4.380;2023-04-01T06:12:53;9.60;99.90
18807;DHT22;9531;52.030;4.380;2023-04-01T06:15:33;9.60;99.90
18807;DHT22;9531;52.030;4.380;2023-04-01T06:18:38;9.60;99.90
18807;DHT22;9531;52.030;4.380;2023-04-01T06:21:15;9.60;99.90
18807;DHT22;9531;52.030;4.380;2023-04-01T06:23:54;9.60;99.90
18807;DHT22;9531;52.030;4.380;2023-04-01T06:26:30;9.60;99.90
18807;DHT22;9531;52.030;4.380;2023-04-01T06:29:19;9.60;99.90
18807;DHT22;9531;52.030;4.380;2023-04-01T06:32:08;9.60;99.90
18807;DHT22;9531;52.030;4.380;2023-04-01T06:35:00;9.60;99.90
18807;DHT22;9531;52.030;4.380;2023-04-01T06:37:52;9.60;99.90
18807;DHT22;9531;52.030;4.380;2023-04-01T06:41:02;9.60;99.90
18807;DHT22;9531;52.030;4.380;2023-04-01T06:43:38;9.60;99.90
18807;DHT22;9531;52.030;4.380;2023-04-01T06:46:17;9.60;99.90
18807;DHT22;9531;52.030;4.380;2023-04-01T06:49:07;9.70;99.90
18807;DHT22;9531;52.030;4.380;2023-04-01T06:51:44;9.70;99.90
18807;DHT22;9531;52.030;4.380;2023-04-01T06:54:17;9.70;99.90
18807;DHT22;9531;52.030;4.380;2023-04-01T06:56:57;9.70;99.90
18807;DHT22;9531;52.030;4.380;2023-04-01T06:59:29;9.70;99.90
18807;DHT22;9531;52.030;4.380;2023-04-01T07:02:03;9.80;99.90
18807;DHT22;9531;52.030;4.380;2023-04-01T07:04:35;9.80;99.90
18807;DHT22;9531;52.030;4.380;2023-04-01T07:07:05;9.80;99.90
18807;DHT22;9531;52.030;4.380;2023-04-01T07:09:40;9.80;99.90
18807;DHT22;9531;52.030;4.380;2023-04-01T07:12:16;9.80;99.90
18807;DHT22;9531;52.030;4.380;2023-04-01T07:14:47;9.80;99.90
18807;DHT22;9531;52.030;4.380;2023-04-01T07:17:18;9.80;99.90
18807;DHT22;9531;52.030;4.380;2023-04-01T07:19:51;9.90;99.90
18807;DHT22;9531;52.030;4.380;2023-04-01T07:22:27;9.90;99.90
18807;DHT22;9531;52.030;4.380;2023-04-01T07:24:59;9.90;99.90
18807;DHT22;9531;52.030;4.380;2023-04-01T07:27:29;9.90;99.90
18807;DHT22;9531;52.030;4.380;2023-04-01T07:29:56;9.90;99.90
18807;DHT22;9531;52.030;4.380;2023-04-01T07:32:32;9.90;99.90
18807;DHT22;9531;52.030;4.380;2023-04-01T07:35:09;9.90;99.90
18807;DHT22;9531;52.030;4.380;2023-04-01T07:37:47;9.90;99.90
18807;DHT22;9531;52.030;4.380;2023-04-01T07:40:24;10.00;99.90
18807;DHT22;9531;52.030;4.380;2023-04-01T07:43:09;10.00;99.90
18807;DHT22;9531;52.030;4.380;2023-04-01T07:45:45;10.00;99.90
18807;DHT22;9531;52.030;4.380;2023-04-01T07:48:21;10.00;99.90
18807;DHT22;9531;52.030;4.380;2023-04-01T07:50:57;10.00;99.90
18807;DHT22;9531;52.030;4.380;2023-04-01T07:53:31;10.00;99.90
18807;DHT22;9531;52.030;4.380;2023-04-01T07:56:07;10.00;99.90
18807;DHT22;9531;52.030;4.380;2023-04-01T07:58:45;10.00;99.90
18807;DHT22;9531;52.030;4.380;2023-04-01T08:01:21;10.00;99.90
18807;DHT22;9531;52.030;4.380;2023-04-01T08:04:04;10.00;99.90
18807;DHT22;9531;52.030;4.380;2023-04-01T08:06:39;10.10;99.90
18807;DHT22;9531;52.030;4.380;2023-04-01T08:09:14;10.10;99.90
18807;DHT22;9531;52.030;4.380;2023-04-01T08:11:59;10.10;99.90
18807;DHT22;9531;52.030;4.380;2023-04-01T08:14:37;10.20;99.90
18807;DHT22;9531;52.030;4.380;2023-04-01T08:17:12;10.20;99.90
18807;DHT22;9531;52.030;4.380;2023-04-01T08:19:55;10.20;99.90
18807;DHT22;9531;52.030;4.380;2023-04-01T08:22:27;10.20;99.90
18807;DHT22;9531;52.030;4.380;2023-04-01T08:24:56;10.30;99.90
18807;DHT22;9531;52.030;4.380;2023-04-01T08:27:31;10.30;99.90
18807;DHT22;9531;52.030;4.380;2023-04-01T08:30:05;10.30;99.90
18807;DHT22;9531;52.030;4.380;2023-04-01T08:32:36;10.30;99.90
18807;DHT22;9531;52.030;4.380;2023-04-01T08:35:09;10.30;99.90
18807;DHT22;9531;52.030;4.380;2023-04-01T08:37:42;10.30;99.90
18807;DHT22;9531;52.030;4.380;2023-04-01T08:40:32;10.30;99.90
18807;DHT22;9531;52.030;4.380;2023-04-01T08:43:09;10.30;99.90
18807;DHT22;9531;52.030;4.380;2023-04-01T08:46:03;10.40;99.90
18807;DHT22;9531;52.030;4.380;2023-04-01T08:48:56;10.40;99.90
18807;DHT22;9531;52.030;4.380;2023-04-01T08:51:54;10.50;99.90
18807;DHT22;9531;52.030;4.380;2023-04-01T08:54:42;10.50;99.90
18807;DHT22;9531;52.030;4.380;2023-04-01T08:57:15;10.60;99.90
18807;DHT22;9531;52.030;4.380;2023-04-01T08:59:56;10.60;99.90
18807;DHT22;9531;52.030;4.380;2023-04-01T09:02:45;10.70;99.90
18807;DHT22;9531;52.030;4.380;2023-04-01T09:06:01;10.70;99.90
18807;DHT22;9531;52.030;4.380;2023-04-01T09:08:48;10.70;99.90
18807;DHT22;9531;52.030;4.380;2023-04-01T09:11:30;10.70;99.90
18807;DHT22;9531;52.030;4.380;2023-04-01T09:14:26;10.70;99.90
18807;DHT22;9531;52.030;4.380;2023-04-01T09:17:16;10.70;99.90
18807;DHT22;9531;52.030;4.380;2023-04-01T09:20:06;10.70;99.90
18807;DHT22;9531;52.030;4.380;2023-04-01T09:23:00;10.70;99.90
18807;DHT22;9531;52.030;4.380;2023-04-01T09:25:48;10.70;99.90
18807;DHT22;9531;52.030;4.380;2023-04-01T09:28:22;10.70;99.90
18807;DHT22;9531;52.030;4.380;2023-04-01T09:37:25;10.80;99.90
18807;DHT22;9531;52.030;4.380;2023-04-01T09:40:17;10.80;99.90
18807;DHT22;9531;52.030;4.380;2023-04-01T09:42:49;10.80;99.90
18807;DHT22;9531;52.030;4.380;2023-04-01T09:45:41;10.80;99.90
18807;DHT22;9531;52.030;4.380;2023-04-01T09:48:19;10.80;99.90
18807;DHT22;9531;52.030;4.380;2023-04-01T09:50:57;10.80;99.90
18807;DHT22;9531;52.030;4.380;2023-04-01T09:53:41;10.80;99.90
18807;DHT22;9531;52.030;4.380;2023-04-01T09:59:50;10.90;99.90
18807;DHT22;9531;52.030;4.380;2023-04-01T10:02:54;10.90;99.90
18807;DHT22;9531;52.030;4.380;2023-04-01T10:05:54;10.90;99.90
18807;DHT22;9531;52.030;4.380;2023-04-01T10:15:12;11.10;99.90
18807;DHT22;9531;52.030;4.380;2023-04-01T10:18:36;11.10;99.90
18807;DHT22;9531;52.030;4.380;2023-04-01T10:24:50;11.20;99.90
18807;DHT22;9531;52.030;4.380;2023-04-01T10:27:33;11.30;99.90
18807;DHT22;9531;52.030;4.380;2023-04-01T10:30:51;11.30;99.90
18807;DHT22;9531;52.030;4.380;2023-04-01T10:33:54;11.40;99.90
18807;DHT22;9531;52.030;4.380;2023-04-01T10:36:52;11.40;99.90
18807;DHT22;9531;52.030;4.380;2023-04-01T10:39:53;11.40;99.90
18807;DHT22;9531;52.030;4.380;2023-04-01T10:49:16;11.50;99.90
18807;DHT22;9531;52.030;4.380;2023-04-01T10:55:37;11.50;99.90
18807;DHT22;9531;52.030;4.380;2023-04-01T11:01:45;11.60;99.90
18807;DHT22;9531;52.030;4.380;2023-04-01T11:08:01;11.60;99.90
18807;DHT22;9531;52.030;4.380;2023-04-01T11:14:09;11.70;99.90
18807;DHT22;9531;52.030;4.380;2023-04-01T11:17:15;11.70;99.90
18807;DHT22;9531;52.030;4.380;2023-04-01T11:20:19;11.70;99.90
18807;DHT22;9531;52.030;4.380;2023-04-01T11:23:01;11.70;99.90
18807;DHT22;9531;52.030;4.380;2023-04-01T11:25:46;11.70;99.90
18807;DHT22;9531;52.030;4.380;2023-04-01T11:28:40;11.80;99.90
18807;DHT22;9531;52.030;4.380;2023-04-01T11:31:28;11.80;99.90
18807;DHT22;9531;52.030;4.380;2023-04-01T11:34:02;11.80;99.90
18807;DHT22;9531;52.030;4.380;2023-04-01T11:36:40;11.80;99.90
18807;DHT22;9531;52.030;4.380;2023-04-01T11:39:20;11.90;99.90
18807;DHT22;9531;52.030;4.380;2023-04-01T11:41:56;11.90;99.90
18807;DHT22;9531;52.030;4.380;2023-04-01T11:44:29;11.90;99.90
18807;DHT22;9531;52.030;4.380;2023-04-01T11:47:19;12.00;99.90
18807;DHT22;9531;52.030;4.380;2023-04-01T11:49:57;12.00;99.90
18807;DHT22;9531;52.030;4.380;2023-04-01T11:52:39;12.10;99.90
18807;DHT22;9531;52.030;4.380;2023-04-01T11:55:23;12.10;99.90
18807;DHT22;9531;52.030;4.380;2023-04-01T12:01:08;12.20;99.90
18807;DHT22;9531;52.030;4.380;2023-04-01T12:04:00;12.20;99.90
18807;DHT22;9531;52.030;4.380;2023-04-01T12:06:37;12.30;99.90
18807;DHT22;9531;52.030;4.380;2023-04-01T12:09:18;12.30;99.90
18807;DHT22;9531;52.030;4.380;2023-04-01T12:12:06;12.40;99.90
18807;DHT22;9531;52.030;4.380;2023-04-01T12:14:39;12.40;99.90
18807;DHT22;9531;52.030;4.380;2023-04-01T12:17:20;12.40;99.90
18807;DHT22;9531;52.030;4.380;2023-04-01T12:19:55;12.50;99.90
18807;DHT22;9531;52.030;4.380;2023-04-01T12:22:40;12.50;99.90
18807;DHT22;9531;52.030;4.380;2023-04-01T12:25:33;12.50;99.90
18807;DHT22;9531;52.030;4.380;2023-04-01T12:28:10;12.50;99.90
18807;DHT22;9531;52.030;4.380;2023-04-01T12:30:53;12.50;99.90
18807;DHT22;9531;52.030;4.380;2023-04-01T12:33:42;12.50;99.90
18807;DHT22;9531;52.030;4.380;2023-04-01T12:36:34;12.60;99.90
18807;DHT22;9531;52.030;4.380;2023-04-01T12:39:34;12.60;99.90
18807;DHT22;9531;52.030;4.380;2023-04-01T12:42:11;12.60;99.90
18807;DHT22;9531;52.030;4.380;2023-04-01T12:44:57;12.60;99.90
18807;DHT22;9531;52.030;4.380;2023-04-01T12:47:53;12.70;99.90
18807;DHT22;9531;52.030;4.380;2023-04-01T12:50:39;12.70;99.90
18807;DHT22;9531;52.030;4.380;2023-04-01T12:53:23;12.70;99.90
18807;DHT22;9531;52.030;4.380;2023-04-01T12:56:02;12.70;99.90
18807;DHT22;9531;52.030;4.380;2023-04-01T12:59:03;12.70;99.90
18807;DHT22;9531;52.030;4.380;2023-04-01T13:01:51;12.70;99.90
18807;DHT22;9531;52.030;4.380;2023-04-01T13:04:44;12.70;99.90
18807;DHT22;9531;52.030;4.380;2023-04-01T13:10:31;12.70;99.90
18807;DHT22;9531;52.030;4.380;2023-04-01T13:16:09;12.80;99.90
18807;DHT22;9531;52.030;4.380;2023-04-01T13:18:48;12.80;99.90
18807;DHT22;9531;52.030;4.380;2023-04-01T13:21:26;12.70;99.90
18807;DHT22;9531;52.030;4.380;2023-04-01T13:24:03;12.80;99.90
18807;DHT22;9531;52.030;4.380;2023-04-01T13:26:37;12.80;99.90
18807;DHT22;9531;52.030;4.380;2023-04-01T13:29:09;12.80;99.90
18807;DHT22;9531;52.030;4.380;2023-04-01T13:31:47;12.90;99.90
18807;DHT22;9531;52.030;4.380;2023-04-01T13:34:26;12.90;99.90
18807;DHT22;9531;52.030;4.380;2023-04-01T13:37:07;13.00;99.90
18807;DHT22;9531;52.030;4.380;2023-04-01T13:39:58;13.00;99.90
18807;DHT22;9531;52.030;4.380;2023-04-01T13:42:37;13.00;99.90
18807;DHT22;9531;52.030;4.380;2023-04-01T13:45:13;13.10;99.90
18807;DHT22;9531;52.030;4.380;2023-04-01T13:48:16;13.00;99.90
18807;DHT22;9531;52.030;4.380;2023-04-01T13:50:58;13.10;99.90
18807;DHT22;9531;52.030;4.380;2023-04-01T13:53:55;13.00;99.90
18807;DHT22;9531;52.030;4.380;2023-04-01T13:56:42;13.10;99.90
18807;DHT22;9531;52.030;4.380;2023-04-01T13:59:37;13.00;99.90
18807;DHT22;9531;52.030;4.380;2023-04-01T14:02:28;13.00;99.90
18807;DHT22;9531;52.030;4.380;2023-04-01T14:05:13;13.00;99.90
18807;DHT22;9531;52.030;4.380;2023-04-01T14:07:55;13.00;99.90
18807;DHT22;9531;52.030;4.380;2023-04-01T14:10:31;13.00;99.90
18807;DHT22;9531;52.030;4.380;2023-04-01T14:13:05;13.00;99.90
18807;DHT22;9531;52.030;4.380;2023-04-01T14:18:37;13.00;99.90
18807;DHT22;9531;52.030;4.380;2023-04-01T14:21:19;13.00;99.90
18807;DHT22;9531;52.030;4.380;2023-04-01T14:24:08;13.00;99.90
18807;DHT22;9531;52.030;4.380;2023-04-01T14:27:00;13.10;99.90
18807;DHT22;9531;52.030;4.380;2023-04-01T14:29:34;13.10;99.90
18807;DHT22;9531;52.030;4.380;2023-04-01T14:32:11;13.10;99.90
18807;DHT22;9531;52.030;4.380;2023-04-01T14:34:55;13.20;99.90
18807;DHT22;9531;52.030;4.380;2023-04-01T14:37:54;13.30;99.90
18807;DHT22;9531;52.030;4.380;2023-04-01T14:40:27;13.40;99.90
18807;DHT22;9531;52.030;4.380;2023-04-01T14:43:21;13.50;99.90
18807;DHT22;9531;52.030;4.380;2023-04-01T14:46:17;13.50;99.90
18807;DHT22;9531;52.030;4.380;2023-04-01T14:48:55;13.60;99.90
18807;DHT22;9531;52.030;4.380;2023-04-01T14:51:29;13.60;99.90
18807;DHT22;9531;52.030;4.380;2023-04-01T14:54:03;13.60;99.90
18807;DHT22;9531;52.030;4.380;2023-04-01T14:56:41;13.70;99.90
18807;DHT22;9531;52.030;4.380;2023-04-01T14:59:13;13.70;99.90
18807;DHT22;9531;52.030;4.380;2023-04-01T15:01:47;13.70;99.90
18807;DHT22;9531;52.030;4.380;2023-04-01T15:04:37;13.70;99.90
18807;DHT22;9531;52.030;4.380;2023-04-01T15:07:42;13.70;99.90
18807;DHT22;9531;52.030;4.380;2023-04-01T15:10:27;13.70;99.90
18807;DHT22;9531;52.030;4.380;2023-04-01T15:13:08;13.60;99.90
18807;DHT22;9531;52.030;4.380;2023-04-01T15:15:50;13.50;99.90
18807;DHT22;9531;52.030;4.380;2023-04-01T15:18:33;13.50;99.90
18807;DHT22;9531;52.030;4.380;2023-04-01T15:21:17;13.40;99.90
18807;DHT22;9531;52.030;4.380;2023-04-01T15:23:53;13.40;99.90
18807;DHT22;9531;52.030;4.380;2023-04-01T15:26:33;13.30;99.90
18807;DHT22;9531;52.030;4.380;2023-04-01T15:29:23;13.30;99.90
18807;DHT22;9531;52.030;4.380;2023-04-01T15:31:55;13.20;99.90
18807;DHT22;9531;52.030;4.380;2023-04-01T15:34:32;13.10;99.90
18807;DHT22;9531;52.030;4.380;2023-04-01T15:37:11;13.10;99.90
18807;DHT22;9531;52.030;4.380;2023-04-01T15:39:51;13.10;99.90
18807;DHT22;9531;52.030;4.380;2023-04-01T15:42:45;13.10;99.90
18807;DHT22;9531;52.030;4.380;2023-04-01T15:45:30;13.10;99.90
18807;DHT22;9531;52.030;4.380;2023-04-01T15:48:02;13.10;99.90
18807;DHT22;9531;52.030;4.380;2023-04-01T15:50:54;13.10;99.90
18807;DHT22;9531;52.030;4.380;2023-04-01T15:59:17;13.10;99.90
18807;DHT22;9531;52.030;4.380;2023-04-01T16:01:50;13.00;99.90
18807;DHT22;9531;52.030;4.380;2023-04-01T16:04:46;13.00;99.90
18807;DHT22;9531;52.030;4.380;2023-04-01T16:07:36;13.00;99.90
18807;DHT22;9531;52.030;4.380;2023-04-01T16:10:29;12.90;99.90
18807;DHT22;9531;52.030;4.380;2023-04-01T16:13:12;12.90;99.90
18807;DHT22;9531;52.030;4.380;2023-04-01T16:15:49;12.80;99.90
18807;DHT22;9531;52.030;4.380;2023-04-01T16:18:48;12.80;99.90
18807;DHT22;9531;52.030;4.380;2023-04-01T16:21:38;12.80;99.90
18807;DHT22;9531;52.030;4.380;2023-04-01T16:24:15;12.70;99.90
18807;DHT22;9531;52.030;4.380;2023-04-01T16:26:50;12.60;99.90
18807;DHT22;9531;52.030;4.380;2023-04-01T16:29:30;12.60;99.90
18807;DHT22;9531;52.030;4.380;2023-04-01T16:32:18;12.60;99.90
18807;DHT22;9531;52.030;4.380;2023-04-01T16:34:58;12.60;99.90
18807;DHT22;9531;52.030;4.380;2023-04-01T16:37:33;12.60;99.90
18807;DHT22;9531;52.030;4.380;2023-04-01T16:40:13;12.50;99.90
18807;DHT22;9531;52.030;4.380;2023-04-01T16:42:50;12.50;99.90
18807;DHT22;9531;52.030;4.380;2023-04-01T16:45:33;12.50;99.90
18807;DHT22;9531;52.030;4.380;2023-04-01T16:48:12;12.50;99.90
18807;DHT22;9531;52.030;4.380;2023-04-01T16:50:53;12.40;99.90
18807;DHT22;9531;52.030;4.380;2023-04-01T16:53:30;12.40;99.90
18807;DHT22;9531;52.030;4.380;2023-04-01T16:56:08;12.40;99.90
18807;DHT22;9531;52.030;4.380;2023-04-01T16:58:42;12.30;99.90
18807;DHT22;9531;52.030;4.380;2023-04-01T17:01:13;12.30;99.90
18807;DHT22;9531;52.030;4.380;2023-04-01T17:03:44;12.30;99.90
18807;DHT22;9531;52.030;4.380;2023-04-01T17:06:21;12.20;99.90
18807;DHT22;9531;52.030;4.380;2023-04-01T17:09:17;12.20;99.90
18807;DHT22;9531;52.030;4.380;2023-04-01T17:11:54;12.20;99.90
18807;DHT22;9531;52.030;4.380;2023-04-01T17:14:28;12.10;99.90
18807;DHT22;9531;52.030;4.380;2023-04-01T17:17:13;12.10;99.90
18807;DHT22;9531;52.030;4.380;2023-04-01T17:20:12;12.10;99.90
18807;DHT22;9531;52.030;4.380;2023-04-01T17:22:47;12.10;99.90
18807;DHT22;9531;52.030;4.380;2023-04-01T17:25:52;12.00;99.90
18807;DHT22;9531;52.030;4.380;2023-04-01T17:28:31;12.00;99.90
18807;DHT22;9531;52.030;4.380;2023-04-01T17:31:07;12.00;99.90
18807;DHT22;9531;52.030;4.380;2023-04-01T17:33:49;12.00;99.90
18807;DHT22;9531;52.030;4.380;2023-04-01T17:36:33;11.90;99.90
18807;DHT22;9531;52.030;4.380;2023-04-01T17:39:33;11.90;99.90
18807;DHT22;9531;52.030;4.380;2023-04-01T17:42:07;11.90;99.90
18807;DHT22;9531;52.030;4.380;2023-04-01T17:44:47;11.80;99.90
18807;DHT22;9531;52.030;4.380;2023-04-01T17:47:34;11.80;99.90
18807;DHT22;9531;52.030;4.380;2023-04-01T17:50:14;11.80;99.90
18807;DHT22;9531;52.030;4.380;2023-04-01T17:52:46;11.70;99.90
18807;DHT22;9531;52.030;4.380;2023-04-01T17:55:32;11.70;99.90
18807;DHT22;9531;52.030;4.380;2023-04-01T17:58:08;11.70;99.90